sensor_id;sensor_type;location;lat;lon;timestamp;pressure;altitude;pressure_sealevel;temperature
45850;BMP180;10739;52.198;20.908;2022-12-07T00:01:27;99573.00;;;5.60
45850;BMP180;10739;52.198;20.908;2022-12-07T00:03:56;99576.00;;;5.60
45850;BMP180;10739;52.198;20.908;2022-12-07T00:06:26;99574.00;;;5.70
45850;BMP180;10739;52.198;20.908;2022-12-07T00:08:52;99568.00;;;5.60
45850;BMP180;10739;52.198;20.908;2022-12-07T00:11:21;99565.00;;;5.30
45850;BMP180;10739;52.198;20.908;2022-12-07T00:13:56;99566.00;;;5.20
45850;BMP180;10739;52.198;20.908;2022-12-07T00:16:26;99555.00;;;5.20
45850;BMP180;10739;52.198;20.908;2022-12-07T00:18:53;99539.00;;;5.60
45850;BMP180;10739;52.198;20.908;2022-12-07T00:21:26;99557.00;;;5.40
45850;BMP180;10739;52.198;20.908;2022-12-07T00:23:54;99552.00;;;5.30
45850;BMP180;10739;52.198;20.908;2022-12-07T00:26:30;99555.00;;;5.20
45850;BMP180;10739;52.198;20.908;2022-12-07T00:29:04;99557.00;;;5.30
45850;BMP180;10739;52.198;20.908;2022-12-07T00:31:35;99560.00;;;5.40
45850;BMP180;10739;52.198;20.908;2022-12-07T00:34:06;99557.00;;;5.10
45850;BMP180;10739;52.198;20.908;2022-12-07T00:36:33;99551.00;;;5.40
45850;BMP180;10739;52.198;20.908;2022-12-07T00:39:00;99549.00;;;5.70
45850;BMP180;10739;52.198;20.908;2022-12-07T00:41:28;99549.00;;;6.00
45850;BMP180;10739;52.198;20.908;2022-12-07T00:43:55;99547.00;;;5.70
45850;BMP180;10739;52.198;20.908;2022-12-07T00:46:22;99543.00;;;6.00
45850;BMP180;10739;52.198;20.908;2022-12-07T00:48:49;99546.00;;;6.20
45850;BMP180;10739;52.198;20.908;2022-12-07T00:51:18;99554.00;;;6.10
45850;BMP180;10739;52.198;20.908;2022-12-07T00:53:45;99538.00;;;6.30
45850;BMP180;10739;52.198;20.908;2022-12-07T00:56:24;99536.00;;;5.60
45850;BMP180;10739;52.198;20.908;2022-12-07T00:59:02;99544.00;;;4.90
45850;BMP180;10739;52.198;20.908;2022-12-07T01:01:32;99537.00;;;4.90
45850;BMP180;10739;52.198;20.908;2022-12-07T01:03:59;99538.00;;;5.00
45850;BMP180;10739;52.198;20.908;2022-12-07T01:06:31;99533.00;;;5.20
45850;BMP180;10739;52.198;20.908;2022-12-07T01:08:58;99539.00;;;5.60
45850;BMP180;10739;52.198;20.908;2022-12-07T01:11:28;99532.00;;;5.30
45850;BMP180;10739;52.198;20.908;2022-12-07T01:13:57;99535.00;;;5.30
45850;BMP180;10739;52.198;20.908;2022-12-07T01:16:26;99521.00;;;5.10
45850;BMP180;10739;52.198;20.908;2022-12-07T01:18:56;99539.00;;;5.30
45850;BMP180;10739;52.198;20.908;2022-12-07T01:21:27;99524.00;;;5.50
45850;BMP180;10739;52.198;20.908;2022-12-07T01:23:54;99532.00;;;5.40
45850;BMP180;10739;52.198;20.908;2022-12-07T01:26:23;99531.00;;;5.50
45850;BMP180;10739;52.198;20.908;2022-12-07T01:28:51;99533.00;;;5.70
45850;BMP180;10739;52.198;20.908;2022-12-07T01:31:21;99528.00;;;5.80
45850;BMP180;10739;52.198;20.908;2022-12-07T01:33:53;99520.00;;;5.60
45850;BMP180;10739;52.198;20.908;2022-12-07T01:36:32;99531.00;;;5.60
45850;BMP180;10739;52.198;20.908;2022-12-07T01:39:05;99534.00;;;5.90
45850;BMP180;10739;52.198;20.908;2022-12-07T01:41:36;99522.00;;;5.90
45850;BMP180;10739;52.198;20.908;2022-12-07T01:44:23;99525.00;;;5.60
45850;BMP180;10739;52.198;20.908;2022-12-07T01:47:02;99529.00;;;5.30
45850;BMP180;10739;52.198;20.908;2022-12-07T01:49:47;99515.00;;;5.60
45850;BMP180;10739;52.198;20.908;2022-12-07T01:52:32;99529.00;;;5.70
45850;BMP180;10739;52.198;20.908;2022-12-07T01:55:07;99525.00;;;5.70
45850;BMP180;10739;52.198;20.908;2022-12-07T01:57:39;99523.00;;;5.70
45850;BMP180;10739;52.198;20.908;2022-12-07T02:00:08;99519.00;;;5.60
45850;BMP180;10739;52.198;20.908;2022-12-07T02:03:01;99523.00;;;5.70
45850;BMP180;10739;52.198;20.908;2022-12-07T02:05:31;99516.00;;;6.10
45850;BMP180;10739;52.198;20.908;2022-12-07T02:07:59;99511.00;;;6.20
45850;BMP180;10739;52.198;20.908;2022-12-07T02:10:29;99512.00;;;5.50
45850;BMP180;10739;52.198;20.908;2022-12-07T02:15:48;99514.00;;;6.20
45850;BMP180;10739;52.198;20.908;2022-12-07T02:18:48;99512.00;;;5.50
45850;BMP180;10739;52.198;20.908;2022-12-07T02:27:44;99518.00;;;5.20
45850;BMP180;10739;52.198;20.908;2022-12-07T02:30:23;99511.00;;;5.70
45850;BMP180;10739;52.198;20.908;2022-12-07T02:33:15;99514.00;;;5.70
45850;BMP180;10739;52.198;20.908;2022-12-07T02:35:48;99510.00;;;5.70
45850;BMP180;10739;52.198;20.908;2022-12-07T02:38:35;99505.00;;;5.60
45850;BMP180;10739;52.198;20.908;2022-12-07T02:41:11;99505.00;;;6.00
45850;BMP180;10739;52.198;20.908;2022-12-07T02:43:51;99504.00;;;5.80
45850;BMP180;10739;52.198;20.908;2022-12-07T02:46:38;99510.00;;;6.00
45850;BMP180;10739;52.198;20.908;2022-12-07T02:49:07;99506.00;;;6.20
45850;BMP180;10739;52.198;20.908;2022-12-07T02:51:40;99501.00;;;5.90
45850;BMP180;10739;52.198;20.908;2022-12-07T02:54:18;99506.00;;;5.70
45850;BMP180;10739;52.198;20.908;2022-12-07T03:05:19;99500.00;;;6.00
45850;BMP180;10739;52.198;20.908;2022-12-07T03:08:15;99495.00;;;5.40
45850;BMP180;10739;52.198;20.908;2022-12-07T03:10:59;99502.00;;;5.90
45850;BMP180;10739;52.198;20.908;2022-12-07T03:16:27;99498.00;;;5.60
45850;BMP180;10739;52.198;20.908;2022-12-07T03:19:12;99494.00;;;5.60
45850;BMP180;10739;52.198;20.908;2022-12-07T03:21:46;99491.00;;;5.30
45850;BMP180;10739;52.198;20.908;2022-12-07T03:24:22;99486.00;;;5.60
45850;BMP180;10739;52.198;20.908;2022-12-07T03:26:56;99482.00;;;5.40
45850;BMP180;10739;52.198;20.908;2022-12-07T03:29:35;99484.00;;;5.50
45850;BMP180;10739;52.198;20.908;2022-12-07T03:32:10;99488.00;;;5.30
45850;BMP180;10739;52.198;20.908;2022-12-07T03:34:54;99492.00;;;5.60
45850;BMP180;10739;52.198;20.908;2022-12-07T03:40:39;99492.00;;;5.10
45850;BMP180;10739;52.198;20.908;2022-12-07T03:43:07;99477.00;;;5.30
45850;BMP180;10739;52.198;20.908;2022-12-07T03:45:51;99474.00;;;5.60
45850;BMP180;10739;52.198;20.908;2022-12-07T03:54:13;99466.00;;;5.30
45850;BMP180;10739;52.198;20.908;2022-12-07T03:56:42;99468.00;;;5.10
45850;BMP180;10739;52.198;20.908;2022-12-07T03:59:11;99468.00;;;5.30
45850;BMP180;10739;52.198;20.908;2022-12-07T04:01:41;99464.00;;;5.30
45850;BMP180;10739;52.198;20.908;2022-12-07T04:04:08;99468.00;;;5.20
45850;BMP180;10739;52.198;20.908;2022-12-07T04:06:34;99472.00;;;5.20
45850;BMP180;10739;52.198;20.908;2022-12-07T04:09:00;99454.00;;;5.40
45850;BMP180;10739;52.198;20.908;2022-12-07T04:11:27;99468.00;;;4.90
45850;BMP180;10739;52.198;20.908;2022-12-07T04:13:53;99448.00;;;4.70
45850;BMP180;10739;52.198;20.908;2022-12-07T04:16:37;99460.00;;;4.70
45850;BMP180;10739;52.198;20.908;2022-12-07T04:19:03;99453.00;;;4.60
45850;BMP180;10739;52.198;20.908;2022-12-07T04:21:29;99453.00;;;5.00
45850;BMP180;10739;52.198;20.908;2022-12-07T04:23:56;99455.00;;;4.80
45850;BMP180;10739;52.198;20.908;2022-12-07T04:26:22;99450.00;;;4.80
45850;BMP180;10739;52.198;20.908;2022-12-07T04:28:48;99465.00;;;4.60
45850;BMP180;10739;52.198;20.908;2022-12-07T04:31:14;99464.00;;;4.90
45850;BMP180;10739;52.198;20.908;2022-12-07T04:33:40;99456.00;;;5.10
45850;BMP180;10739;52.198;20.908;2022-12-07T04:36:07;99446.00;;;4.70
45850;BMP180;10739;52.198;20.908;2022-12-07T04:38:33;99457.00;;;4.70
45850;BMP180;10739;52.198;20.908;2022-12-07T04:41:05;99456.00;;;4.80
45850;BMP180;10739;52.198;20.908;2022-12-07T04:43:31;99457.00;;;4.80
45850;BMP180;10739;52.198;20.908;2022-12-07T04:45:58;99461.00;;;4.70
45850;BMP180;10739;52.198;20.908;2022-12-07T04:48:24;99456.00;;;4.90
45850;BMP180;10739;52.198;20.908;2022-12-07T04:50:50;99447.00;;;4.70
45850;BMP180;10739;52.198;20.908;2022-12-07T04:53:16;99452.00;;;4.70
45850;BMP180;10739;52.198;20.908;2022-12-07T04:55:44;99446.00;;;4.60
45850;BMP180;10739;52.198;20.908;2022-12-07T04:58:10;99448.00;;;4.60
45850;BMP180;10739;52.198;20.908;2022-12-07T05:00:37;99441.00;;;4.60
45850;BMP180;10739;52.198;20.908;2022-12-07T05:03:03;99451.00;;;4.50
45850;BMP180;10739;52.198;20.908;2022-12-07T05:05:32;99447.00;;;4.50
45850;BMP180;10739;52.198;20.908;2022-12-07T05:07:58;99444.00;;;4.70
45850;BMP180;10739;52.198;20.908;2022-12-07T05:10:24;99444.00;;;4.30
45850;BMP180;10739;52.198;20.908;2022-12-07T05:12:50;99434.00;;;4.60
45850;BMP180;10739;52.198;20.908;2022-12-07T05:15:17;99441.00;;;4.80
45850;BMP180;10739;52.198;20.908;2022-12-07T05:17:44;99422.00;;;4.70
45850;BMP180;10739;52.198;20.908;2022-12-07T05:20:10;99421.00;;;4.70
45850;BMP180;10739;52.198;20.908;2022-12-07T05:22:37;99429.00;;;4.90
45850;BMP180;10739;52.198;20.908;2022-12-07T05:25:03;99431.00;;;4.70
45850;BMP180;10739;52.198;20.908;2022-12-07T05:27:30;99423.00;;;4.50
45850;BMP180;10739;52.198;20.908;2022-12-07T05:29:56;99430.00;;;4.60
45850;BMP180;10739;52.198;20.908;2022-12-07T05:32:22;99435.00;;;4.80
45850;BMP180;10739;52.198;20.908;2022-12-07T05:34:48;99432.00;;;4.80
45850;BMP180;10739;52.198;20.908;2022-12-07T05:37:14;99427.00;;;4.60
45850;BMP180;10739;52.198;20.908;2022-12-07T05:39:41;99426.00;;;4.80
45850;BMP180;10739;52.198;20.908;2022-12-07T05:42:10;99433.00;;;5.00
45850;BMP180;10739;52.198;20.908;2022-12-07T05:44:45;99439.00;;;4.30
45850;BMP180;10739;52.198;20.908;2022-12-07T05:47:13;99438.00;;;4.40
45850;BMP180;10739;52.198;20.908;2022-12-07T05:49:40;99438.00;;;4.40
45850;BMP180;10739;52.198;20.908;2022-12-07T05:52:07;99437.00;;;4.30
45850;BMP180;10739;52.198;20.908;2022-12-07T05:54:34;99437.00;;;4.40
45850;BMP180;10739;52.198;20.908;2022-12-07T05:57:00;99443.00;;;4.40
45850;BMP180;10739;52.198;20.908;2022-12-07T05:59:26;99443.00;;;4.30
45850;BMP180;10739;52.198;20.908;2022-12-07T06:01:54;99431.00;;;4.40
45850;BMP180;10739;52.198;20.908;2022-12-07T06:04:22;99440.00;;;3.90
45850;BMP180;10739;52.198;20.908;2022-12-07T06:06:49;99435.00;;;4.10
45850;BMP180;10739;52.198;20.908;2022-12-07T06:09:17;99424.00;;;4.10
45850;BMP180;10739;52.198;20.908;2022-12-07T06:11:44;99423.00;;;4.20
45850;BMP180;10739;52.198;20.908;2022-12-07T06:14:29;99432.00;;;4.20
45850;BMP180;10739;52.198;20.908;2022-12-07T06:16:55;99435.00;;;4.30
45850;BMP180;10739;52.198;20.908;2022-12-07T06:19:21;99424.00;;;4.10
45850;BMP180;10739;52.198;20.908;2022-12-07T06:21:48;99425.00;;;4.00
45850;BMP180;10739;52.198;20.908;2022-12-07T06:24:16;99427.00;;;4.10
45850;BMP180;10739;52.198;20.908;2022-12-07T06:26:43;99423.00;;;3.70
45850;BMP180;10739;52.198;20.908;2022-12-07T06:29:10;99432.00;;;3.90
45850;BMP180;10739;52.198;20.908;2022-12-07T06:31:38;99439.00;;;3.80
45850;BMP180;10739;52.198;20.908;2022-12-07T06:34:09;99424.00;;;3.90
45850;BMP180;10739;52.198;20.908;2022-12-07T06:36:35;99432.00;;;4.20
45850;BMP180;10739;52.198;20.908;2022-12-07T06:39:02;99422.00;;;4.10
45850;BMP180;10739;52.198;20.908;2022-12-07T06:41:29;99429.00;;;3.80
45850;BMP180;10739;52.198;20.908;2022-12-07T06:43:55;99423.00;;;4.10
45850;BMP180;10739;52.198;20.908;2022-12-07T06:46:22;99434.00;;;4.20
45850;BMP180;10739;52.198;20.908;2022-12-07T06:48:48;99432.00;;;4.10
45850;BMP180;10739;52.198;20.908;2022-12-07T06:51:15;99431.00;;;4.10
45850;BMP180;10739;52.198;20.908;2022-12-07T06:53:41;99436.00;;;4.10
45850;BMP180;10739;52.198;20.908;2022-12-07T06:56:07;99426.00;;;3.90
45850;BMP180;10739;52.198;20.908;2022-12-07T06:58:34;99426.00;;;4.40
45850;BMP180;10739;52.198;20.908;2022-12-07T07:01:00;99422.00;;;4.10
45850;BMP180;10739;52.198;20.908;2022-12-07T07:03:26;99433.00;;;4.30
45850;BMP180;10739;52.198;20.908;2022-12-07T07:05:53;99431.00;;;4.00
45850;BMP180;10739;52.198;20.908;2022-12-07T07:08:19;99436.00;;;4.40
45850;BMP180;10739;52.198;20.908;2022-12-07T07:10:45;99436.00;;;4.20
45850;BMP180;10739;52.198;20.908;2022-12-07T07:13:11;99437.00;;;4.10
45850;BMP180;10739;52.198;20.908;2022-12-07T07:15:38;99431.00;;;4.00
45850;BMP180;10739;52.198;20.908;2022-12-07T07:18:05;99440.00;;;4.30
45850;BMP180;10739;52.198;20.908;2022-12-07T07:20:31;99424.00;;;4.60
45850;BMP180;10739;52.198;20.908;2022-12-07T07:22:57;99423.00;;;4.10
45850;BMP180;10739;52.198;20.908;2022-12-07T07:25:24;99428.00;;;4.10
45850;BMP180;10739;52.198;20.908;2022-12-07T07:27:50;99430.00;;;4.30
45850;BMP180;10739;52.198;20.908;2022-12-07T07:30:16;99436.00;;;4.30
45850;BMP180;10739;52.198;20.908;2022-12-07T07:32:42;99442.00;;;4.20
45850;BMP180;10739;52.198;20.908;2022-12-07T07:35:08;99442.00;;;4.30
45850;BMP180;10739;52.198;20.908;2022-12-07T07:37:35;99434.00;;;4.40
45850;BMP180;10739;52.198;20.908;2022-12-07T07:40:01;99432.00;;;4.70
45850;BMP180;10739;52.198;20.908;2022-12-07T07:42:27;99431.00;;;4.60
45850;BMP180;10739;52.198;20.908;2022-12-07T07:44:53;99440.00;;;4.30
45850;BMP180;10739;52.198;20.908;2022-12-07T07:47:19;99444.00;;;4.40
45850;BMP180;10739;52.198;20.908;2022-12-07T07:49:46;99426.00;;;4.60
45850;BMP180;10739;52.198;20.908;2022-12-07T07:52:12;99432.00;;;4.70
45850;BMP180;10739;52.198;20.908;2022-12-07T07:54:38;99428.00;;;4.70
45850;BMP180;10739;52.198;20.908;2022-12-07T07:57:04;99434.00;;;4.20
45850;BMP180;10739;52.198;20.908;2022-12-07T07:59:31;99431.00;;;4.70
45850;BMP180;10739;52.198;20.908;2022-12-07T08:01:57;99431.00;;;4.80
45850;BMP180;10739;52.198;20.908;2022-12-07T08:04:23;99434.00;;;5.00
45850;BMP180;10739;52.198;20.908;2022-12-07T08:06:49;99429.00;;;4.10
45850;BMP180;10739;52.198;20.908;2022-12-07T08:09:16;99428.00;;;4.60
45850;BMP180;10739;52.198;20.908;2022-12-07T08:11:42;99434.00;;;4.80
45850;BMP180;10739;52.198;20.908;2022-12-07T08:14:10;99443.00;;;4.60
45850;BMP180;10739;52.198;20.908;2022-12-07T08:16:37;99430.00;;;4.80
45850;BMP180;10739;52.198;20.908;2022-12-07T08:19:05;99448.00;;;4.90
45850;BMP180;10739;52.198;20.908;2022-12-07T08:21:31;99442.00;;;5.20
45850;BMP180;10739;52.198;20.908;2022-12-07T08:23:57;99430.00;;;5.10
45850;BMP180;10739;52.198;20.908;2022-12-07T08:26:23;99447.00;;;5.30
45850;BMP180;10739;52.198;20.908;2022-12-07T08:28:50;99448.00;;;5.10
45850;BMP180;10739;52.198;20.908;2022-12-07T08:31:18;99459.00;;;4.90
45850;BMP180;10739;52.198;20.908;2022-12-07T08:33:48;99449.00;;;5.10
45850;BMP180;10739;52.198;20.908;2022-12-07T08:36:15;99446.00;;;5.50
45850;BMP180;10739;52.198;20.908;2022-12-07T08:38:42;99440.00;;;5.10
45850;BMP180;10739;52.198;20.908;2022-12-07T08:41:08;99458.00;;;4.90
45850;BMP180;10739;52.198;20.908;2022-12-07T08:43:36;99455.00;;;5.70
45850;BMP180;10739;52.198;20.908;2022-12-07T08:46:21;99451.00;;;5.20
45850;BMP180;10739;52.198;20.908;2022-12-07T08:48:59;99456.00;;;5.60
45850;BMP180;10739;52.198;20.908;2022-12-07T08:51:28;99444.00;;;5.50
45850;BMP180;10739;52.198;20.908;2022-12-07T08:53:55;99450.00;;;5.40
45850;BMP180;10739;52.198;20.908;2022-12-07T08:56:24;99447.00;;;6.00
45850;BMP180;10739;52.198;20.908;2022-12-07T08:58:51;99444.00;;;5.90
45850;BMP180;10739;52.198;20.908;2022-12-07T09:01:17;99444.00;;;5.80
45850;BMP180;10739;52.198;20.908;2022-12-07T09:03:43;99453.00;;;5.10
45850;BMP180;10739;52.198;20.908;2022-12-07T09:06:10;99453.00;;;5.70
45850;BMP180;10739;52.198;20.908;2022-12-07T09:08:45;99443.00;;;5.80
45850;BMP180;10739;52.198;20.908;2022-12-07T09:11:12;99441.00;;;5.60
45850;BMP180;10739;52.198;20.908;2022-12-07T09:13:38;99439.00;;;5.70
45850;BMP180;10739;52.198;20.908;2022-12-07T09:16:05;99426.00;;;5.90
45850;BMP180;10739;52.198;20.908;2022-12-07T09:18:31;99434.00;;;5.90
45850;BMP180;10739;52.198;20.908;2022-12-07T09:20:58;99434.00;;;6.00
45850;BMP180;10739;52.198;20.908;2022-12-07T09:23:25;99423.00;;;6.20
45850;BMP180;10739;52.198;20.908;2022-12-07T09:25:51;99422.00;;;6.20
45850;BMP180;10739;52.198;20.908;2022-12-07T09:28:18;99422.00;;;6.00
45850;BMP180;10739;52.198;20.908;2022-12-07T09:30:48;99422.00;;;6.00
45850;BMP180;10739;52.198;20.908;2022-12-07T09:33:15;99413.00;;;5.80
45850;BMP180;10739;52.198;20.908;2022-12-07T09:35:50;99427.00;;;6.00
45850;BMP180;10739;52.198;20.908;2022-12-07T09:38:18;99430.00;;;5.90
45850;BMP180;10739;52.198;20.908;2022-12-07T09:40:46;99416.00;;;5.90
45850;BMP180;10739;52.198;20.908;2022-12-07T09:43:20;99413.00;;;6.40
45850;BMP180;10739;52.198;20.908;2022-12-07T09:45:54;99417.00;;;6.40
45850;BMP180;10739;52.198;20.908;2022-12-07T09:48:30;99423.00;;;6.40
45850;BMP180;10739;52.198;20.908;2022-12-07T09:51:00;99416.00;;;6.80
45850;BMP180;10739;52.198;20.908;2022-12-07T09:53:38;99420.00;;;5.70
45850;BMP180;10739;52.198;20.908;2022-12-07T09:56:05;99416.00;;;6.30
45850;BMP180;10739;52.198;20.908;2022-12-07T09:58:33;99418.00;;;6.20
45850;BMP180;10739;52.198;20.908;2022-12-07T10:03:41;99410.00;;;6.20
45850;BMP180;10739;52.198;20.908;2022-12-07T10:06:12;99406.00;;;5.80
45850;BMP180;10739;52.198;20.908;2022-12-07T10:08:39;99411.00;;;6.20
45850;BMP180;10739;52.198;20.908;2022-12-07T10:11:07;99393.00;;;5.90
45850;BMP180;10739;52.198;20.908;2022-12-07T10:13:43;99415.00;;;5.80
45850;BMP180;10739;52.198;20.908;2022-12-07T10:16:37;99415.00;;;6.20
45850;BMP180;10739;52.198;20.908;2022-12-07T10:22:13;99408.00;;;6.50
45850;BMP180;10739;52.198;20.908;2022-12-07T10:24:43;99403.00;;;6.40
45850;BMP180;10739;52.198;20.908;2022-12-07T10:27:31;99409.00;;;6.20
45850;BMP180;10739;52.198;20.908;2022-12-07T10:29:59;99409.00;;;6.00
45850;BMP180;10739;52.198;20.908;2022-12-07T10:32:34;99404.00;;;6.20
45850;BMP180;10739;52.198;20.908;2022-12-07T10:37:55;99415.00;;;5.80
45850;BMP180;10739;52.198;20.908;2022-12-07T10:43:18;99410.00;;;6.30
45850;BMP180;10739;52.198;20.908;2022-12-07T10:46:13;99413.00;;;6.10
45850;BMP180;10739;52.198;20.908;2022-12-07T10:51:46;99406.00;;;6.20
45850;BMP180;10739;52.198;20.908;2022-12-07T11:00:36;99400.00;;;6.30
45850;BMP180;10739;52.198;20.908;2022-12-07T11:03:49;99401.00;;;6.20
45850;BMP180;10739;52.198;20.908;2022-12-07T11:21:21;99403.00;;;6.20
45850;BMP180;10739;52.198;20.908;2022-12-07T11:29:29;99389.00;;;5.90
45850;BMP180;10739;52.198;20.908;2022-12-07T11:34:55;99389.00;;;6.20
45850;BMP180;10739;52.198;20.908;2022-12-07T11:37:37;99382.00;;;5.70
45850;BMP180;10739;52.198;20.908;2022-12-07T11:40:33;99389.00;;;6.20
45850;BMP180;10739;52.198;20.908;2022-12-07T11:45:44;99380.00;;;6.30
45850;BMP180;10739;52.198;20.908;2022-12-07T11:48:29;99378.00;;;6.10
45850;BMP180;10739;52.198;20.908;2022-12-07T11:51:00;99373.00;;;5.90
45850;BMP180;10739;52.198;20.908;2022-12-07T11:53:49;99376.00;;;6.10
45850;BMP180;10739;52.198;20.908;2022-12-07T11:56:25;99370.00;;;5.80
45850;BMP180;10739;52.198;20.908;2022-12-07T12:01:50;99371.00;;;6.10
45850;BMP180;10739;52.198;20.908;2022-12-07T12:04:40;99370.00;;;6.30
45850;BMP180;10739;52.198;20.908;2022-12-07T12:07:19;99375.00;;;6.60
45850;BMP180;10739;52.198;20.908;2022-12-07T12:09:58;99374.00;;;6.40
45850;BMP180;10739;52.198;20.908;2022-12-07T12:12:51;99366.00;;;6.20
45850;BMP180;10739;52.198;20.908;2022-12-07T12:20:58;99367.00;;;6.30
45850;BMP180;10739;52.198;20.908;2022-12-07T12:26:27;99360.00;;;6.00
45850;BMP180;10739;52.198;20.908;2022-12-07T12:29:01;99352.00;;;5.70
45850;BMP180;10739;52.198;20.908;2022-12-07T12:34:01;99347.00;;;5.40
45850;BMP180;10739;52.198;20.908;2022-12-07T12:36:45;99350.00;;;5.60
45850;BMP180;10739;52.198;20.908;2022-12-07T12:39:14;99347.00;;;5.50
45850;BMP180;10739;52.198;20.908;2022-12-07T12:57:36;99345.00;;;5.70
45850;BMP180;10739;52.198;20.908;2022-12-07T13:00:20;99348.00;;;5.70
45850;BMP180;10739;52.198;20.908;2022-12-07T13:02:59;99345.00;;;5.40
45850;BMP180;10739;52.198;20.908;2022-12-07T13:05:29;99340.00;;;5.50
45850;BMP180;10739;52.198;20.908;2022-12-07T13:08:21;99353.00;;;6.10
45850;BMP180;10739;52.198;20.908;2022-12-07T13:10:50;99343.00;;;5.80
45850;BMP180;10739;52.198;20.908;2022-12-07T13:13:28;99332.00;;;5.60
45850;BMP180;10739;52.198;20.908;2022-12-07T13:18:42;99329.00;;;5.70
45850;BMP180;10739;52.198;20.908;2022-12-07T13:26:36;99333.00;;;5.80
45850;BMP180;10739;52.198;20.908;2022-12-07T13:29:18;99332.00;;;6.10
45850;BMP180;10739;52.198;20.908;2022-12-07T13:31:54;99329.00;;;5.60
45850;BMP180;10739;52.198;20.908;2022-12-07T13:37:27;99343.00;;;5.30
45850;BMP180;10739;52.198;20.908;2022-12-07T13:40:01;99340.00;;;5.40
45850;BMP180;10739;52.198;20.908;2022-12-07T13:42:38;99339.00;;;5.30
45850;BMP180;10739;52.198;20.908;2022-12-07T13:45:33;99345.00;;;5.30
45850;BMP180;10739;52.198;20.908;2022-12-07T13:48:31;99347.00;;;4.90
45850;BMP180;10739;52.198;20.908;2022-12-07T13:51:03;99343.00;;;5.00
45850;BMP180;10739;52.198;20.908;2022-12-07T13:53:30;99359.00;;;4.70
45850;BMP180;10739;52.198;20.908;2022-12-07T13:56:01;99349.00;;;4.80
45850;BMP180;10739;52.198;20.908;2022-12-07T13:58:31;99348.00;;;4.90
45850;BMP180;10739;52.198;20.908;2022-12-07T14:00:59;99355.00;;;4.70
45850;BMP180;10739;52.198;20.908;2022-12-07T14:03:33;99351.00;;;4.60
45850;BMP180;10739;52.198;20.908;2022-12-07T14:06:10;99343.00;;;4.60
45850;BMP180;10739;52.198;20.908;2022-12-07T14:08:39;99358.00;;;4.40
45850;BMP180;10739;52.198;20.908;2022-12-07T14:11:09;99352.00;;;4.30
45850;BMP180;10739;52.198;20.908;2022-12-07T14:14:00;99353.00;;;4.60
45850;BMP180;10739;52.198;20.908;2022-12-07T14:16:37;99355.00;;;4.60
45850;BMP180;10739;52.198;20.908;2022-12-07T14:19:42;99342.00;;;4.30
45850;BMP180;10739;52.198;20.908;2022-12-07T14:22:33;99349.00;;;4.70
45850;BMP180;10739;52.198;20.908;2022-12-07T14:25:22;99356.00;;;4.60
45850;BMP180;10739;52.198;20.908;2022-12-07T14:27:59;99359.00;;;4.40
45850;BMP180;10739;52.198;20.908;2022-12-07T14:30:29;99355.00;;;4.50
45850;BMP180;10739;52.198;20.908;2022-12-07T14:33:08;99351.00;;;4.70
45850;BMP180;10739;52.198;20.908;2022-12-07T14:35:34;99349.00;;;4.50
45850;BMP180;10739;52.198;20.908;2022-12-07T14:38:03;99351.00;;;4.00
45850;BMP180;10739;52.198;20.908;2022-12-07T14:40:29;99354.00;;;4.00
45850;BMP180;10739;52.198;20.908;2022-12-07T14:43:15;99347.00;;;4.40
45850;BMP180;10739;52.198;20.908;2022-12-07T14:45:42;99353.00;;;4.40
45850;BMP180;10739;52.198;20.908;2022-12-07T14:48:15;99353.00;;;4.00
45850;BMP180;10739;52.198;20.908;2022-12-07T14:50:50;99344.00;;;4.30
45850;BMP180;10739;52.198;20.908;2022-12-07T14:53:27;99345.00;;;4.10
45850;BMP180;10739;52.198;20.908;2022-12-07T14:55:53;99350.00;;;4.20
45850;BMP180;10739;52.198;20.908;2022-12-07T14:58:19;99344.00;;;4.10
45850;BMP180;10739;52.198;20.908;2022-12-07T15:00:46;99342.00;;;4.10
45850;BMP180;10739;52.198;20.908;2022-12-07T15:03:14;99335.00;;;4.10
45850;BMP180;10739;52.198;20.908;2022-12-07T15:05:41;99331.00;;;4.20
45850;BMP180;10739;52.198;20.908;2022-12-07T15:08:14;99332.00;;;4.30
45850;BMP180;10739;52.198;20.908;2022-12-07T15:10:40;99333.00;;;4.40
45850;BMP180;10739;52.198;20.908;2022-12-07T15:13:07;99325.00;;;4.50
45850;BMP180;10739;52.198;20.908;2022-12-07T15:15:54;99326.00;;;4.30
45850;BMP180;10739;52.198;20.908;2022-12-07T15:18:22;99333.00;;;4.50
45850;BMP180;10739;52.198;20.908;2022-12-07T15:20:49;99329.00;;;4.40
45850;BMP180;10739;52.198;20.908;2022-12-07T15:23:19;99323.00;;;4.50
45850;BMP180;10739;52.198;20.908;2022-12-07T15:25:48;99320.00;;;4.10
45850;BMP180;10739;52.198;20.908;2022-12-07T15:28:15;99327.00;;;4.30
45850;BMP180;10739;52.198;20.908;2022-12-07T15:30:43;99327.00;;;4.10
45850;BMP180;10739;52.198;20.908;2022-12-07T15:33:11;99326.00;;;4.40
45850;BMP180;10739;52.198;20.908;2022-12-07T15:35:45;99320.00;;;3.90
45850;BMP180;10739;52.198;20.908;2022-12-07T15:38:12;99331.00;;;4.10
45850;BMP180;10739;52.198;20.908;2022-12-07T15:40:39;99329.00;;;4.10
45850;BMP180;10739;52.198;20.908;2022-12-07T15:43:08;99322.00;;;4.00
45850;BMP180;10739;52.198;20.908;2022-12-07T15:45:55;99324.00;;;4.10
45850;BMP180;10739;52.198;20.908;2022-12-07T15:48:21;99323.00;;;4.20
45850;BMP180;10739;52.198;20.908;2022-12-07T15:50:47;99323.00;;;4.00
45850;BMP180;10739;52.198;20.908;2022-12-07T15:53:13;99325.00;;;4.20
45850;BMP180;10739;52.198;20.908;2022-12-07T15:55:40;99321.00;;;4.50
45850;BMP180;10739;52.198;20.908;2022-12-07T15:58:07;99316.00;;;4.30
45850;BMP180;10739;52.198;20.908;2022-12-07T16:00:33;99312.00;;;4.30
45850;BMP180;10739;52.198;20.908;2022-12-07T16:02:59;99305.00;;;4.60
45850;BMP180;10739;52.198;20.908;2022-12-07T16:05:26;99317.00;;;4.40
45850;BMP180;10739;52.198;20.908;2022-12-07T16:07:52;99312.00;;;4.30
45850;BMP180;10739;52.198;20.908;2022-12-07T16:10:18;99310.00;;;4.50
45850;BMP180;10739;52.198;20.908;2022-12-07T16:12:44;99311.00;;;4.30
45850;BMP180;10739;52.198;20.908;2022-12-07T16:15:10;99312.00;;;4.60
45850;BMP180;10739;52.198;20.908;2022-12-07T16:17:36;99312.00;;;4.50
45850;BMP180;10739;52.198;20.908;2022-12-07T16:20:04;99304.00;;;4.50
45850;BMP180;10739;52.198;20.908;2022-12-07T16:22:30;99300.00;;;4.60
45850;BMP180;10739;52.198;20.908;2022-12-07T16:24:57;99304.00;;;4.50
45850;BMP180;10739;52.198;20.908;2022-12-07T16:27:24;99310.00;;;4.50
45850;BMP180;10739;52.198;20.908;2022-12-07T16:29:51;99319.00;;;4.60